sensor_id;sensor_type;location;lat;lon;timestamp;P1;durP1;ratioP1;P2;durP2;ratioP2
7531;SDS011;3807;49.030;8.714;2023-11-21T00:00:49;2.27;;;1.17;;
7531;SDS011;3807;49.030;8.714;2023-11-21T00:03:14;3.83;;;1.20;;
7531;SDS011;3807;49.030;8.714;2023-11-21T00:05:40;2.13;;;1.23;;
7531;SDS011;3807;49.030;8.714;2023-11-21T00:08:08;4.87;;;1.27;;
7531;SDS011;3807;49.030;8.714;2023-11-21T00:10:34;2.13;;;1.10;;
7531;SDS011;3807;49.030;8.714;2023-11-21T00:13:00;6.40;;;1.30;;
7531;SDS011;3807;49.030;8.714;2023-11-21T00:15:27;6.20;;;1.40;;
7531;SDS011;3807;49.030;8.714;2023-11-21T00:17:52;5.40;;;1.40;;
7531;SDS011;3807;49.030;8.714;2023-11-21T00:20:17;4.23;;;1.40;;
7531;SDS011;3807;49.030;8.714;2023-11-21T00:22:43;4.50;;;1.37;;
7531;SDS011;3807;49.030;8.714;2023-11-21T00:25:08;3.03;;;1.20;;
7531;SDS011;3807;49.030;8.714;2023-11-21T00:27:34;4.10;;;1.30;;
7531;SDS011;3807;49.030;8.714;2023-11-21T00:30:00;2.00;;;1.00;;
7531;SDS011;3807;49.030;8.714;2023-11-21T00:32:26;6.10;;;1.37;;
7531;SDS011;3807;49.030;8.714;2023-11-21T00:34:51;2.87;;;1.40;;
7531;SDS011;3807;49.030;8.714;2023-11-21T00:37:17;2.80;;;1.43;;
7531;SDS011;3807;49.030;8.714;2023-11-21T00:39:42;6.10;;;1.30;;
7531;SDS011;3807;49.030;8.714;2023-11-21T00:42:07;6.00;;;1.37;;
7531;SDS011;3807;49.030;8.714;2023-11-21T00:44:33;6.00;;;1.40;;
7531;SDS011;3807;49.030;8.714;2023-11-21T00:46:59;3.33;;;1.50;;
7531;SDS011;3807;49.030;8.714;2023-11-21T00:49:24;4.70;;;1.07;;
7531;SDS011;3807;49.030;8.714;2023-11-21T00:51:50;4.10;;;1.53;;
7531;SDS011;3807;49.030;8.714;2023-11-21T00:54:15;3.23;;;1.20;;
7531;SDS011;3807;49.030;8.714;2023-11-21T00:56:42;3.37;;;1.20;;
7531;SDS011;3807;49.030;8.714;2023-11-21T00:59:08;2.23;;;1.10;;
7531;SDS011;3807;49.030;8.714;2023-11-21T01:01:33;4.20;;;1.10;;
7531;SDS011;3807;49.030;8.714;2023-11-21T01:03:58;3.93;;;1.27;;
7531;SDS011;3807;49.030;8.714;2023-11-21T01:06:24;3.03;;;1.20;;
7531;SDS011;3807;49.030;8.714;2023-11-21T01:08:49;2.40;;;1.47;;
7531;SDS011;3807;49.030;8.714;2023-11-21T01:11:15;3.03;;;1.10;;
7531;SDS011;3807;49.030;8.714;2023-11-21T01:13:40;4.70;;;1.10;;
7531;SDS011;3807;49.030;8.714;2023-11-21T01:16:06;3.60;;;1.17;;
7531;SDS011;3807;49.030;8.714;2023-11-21T01:18:32;2.67;;;1.20;;
7531;SDS011;3807;49.030;8.714;2023-11-21T01:20:58;4.00;;;1.20;;
7531;SDS011;3807;49.030;8.714;2023-11-21T01:23:25;2.10;;;1.10;;
7531;SDS011;3807;49.030;8.714;2023-11-21T01:25:51;3.07;;;1.30;;
7531;SDS011;3807;49.030;8.714;2023-11-21T01:28:17;2.67;;;1.20;;
7531;SDS011;3807;49.030;8.714;2023-11-21T01:30:43;1.77;;;1.27;;
7531;SDS011;3807;49.030;8.714;2023-11-21T01:33:09;1.40;;;1.07;;
7531;SDS011;3807;49.030;8.714;2023-11-21T01:35:34;1.77;;;1.13;;
7531;SDS011;3807;49.030;8.714;2023-11-21T01:38:00;3.17;;;1.07;;
7531;SDS011;3807;49.030;8.714;2023-11-21T01:40:26;4.50;;;1.10;;
7531;SDS011;3807;49.030;8.714;2023-11-21T01:42:52;3.30;;;1.00;;
7531;SDS011;3807;49.030;8.714;2023-11-21T01:45:18;2.10;;;0.90;;
7531;SDS011;3807;49.030;8.714;2023-11-21T01:47:44;2.77;;;0.90;;
7531;SDS011;3807;49.030;8.714;2023-11-21T01:50:12;5.13;;;1.20;;
7531;SDS011;3807;49.030;8.714;2023-11-21T01:52:41;2.77;;;1.13;;
7531;SDS011;3807;49.030;8.714;2023-11-21T01:55:09;4.17;;;1.00;;
7531;SDS011;3807;49.030;8.714;2023-11-21T01:57:35;1.67;;;0.90;;
7531;SDS011;3807;49.030;8.714;2023-11-21T02:00:02;1.90;;;1.00;;
7531;SDS011;3807;49.030;8.714;2023-11-21T02:02:44;2.33;;;1.20;;
7531;SDS011;3807;49.030;8.714;2023-11-21T02:05:16;3.37;;;1.00;;
7531;SDS011;3807;49.030;8.714;2023-11-21T02:07:43;4.10;;;1.47;;
7531;SDS011;3807;49.030;8.714;2023-11-21T02:10:09;1.70;;;0.87;;
7531;SDS011;3807;49.030;8.714;2023-11-21T02:12:39;1.17;;;0.97;;
7531;SDS011;3807;49.030;8.714;2023-11-21T02:15:05;1.80;;;1.03;;
7531;SDS011;3807;49.030;8.714;2023-11-21T02:17:35;3.10;;;1.17;;
7531;SDS011;3807;49.030;8.714;2023-11-21T02:20:01;1.27;;;1.13;;
7531;SDS011;3807;49.030;8.714;2023-11-21T02:22:28;3.27;;;0.90;;
7531;SDS011;3807;49.030;8.714;2023-11-21T02:24:57;3.27;;;0.93;;
7531;SDS011;3807;49.030;8.714;2023-11-21T02:27:23;3.07;;;1.30;;
7531;SDS011;3807;49.030;8.714;2023-11-21T02:29:49;2.50;;;1.10;;
7531;SDS011;3807;49.030;8.714;2023-11-21T02:32:15;3.70;;;0.93;;
7531;SDS011;3807;49.030;8.714;2023-11-21T02:34:42;1.50;;;1.00;;
7531;SDS011;3807;49.030;8.714;2023-11-21T02:37:08;2.20;;;1.37;;
7531;SDS011;3807;49.030;8.714;2023-11-21T02:39:34;2.87;;;0.97;;
7531;SDS011;3807;49.030;8.714;2023-11-21T02:41:59;1.43;;;0.97;;
7531;SDS011;3807;49.030;8.714;2023-11-21T02:44:24;1.60;;;1.00;;
7531;SDS011;3807;49.030;8.714;2023-11-21T02:46:51;2.07;;;1.00;;
7531;SDS011;3807;49.030;8.714;2023-11-21T02:49:16;1.27;;;1.00;;
7531;SDS011;3807;49.030;8.714;2023-11-21T02:51:42;1.37;;;1.10;;
7531;SDS011;3807;49.030;8.714;2023-11-21T02:54:07;2.80;;;1.07;;
7531;SDS011;3807;49.030;8.714;2023-11-21T02:56:33;3.13;;;1.10;;
7531;SDS011;3807;49.030;8.714;2023-11-21T02:58:59;2.77;;;1.07;;
7531;SDS011;3807;49.030;8.714;2023-11-21T03:01:25;4.90;;;0.97;;
7531;SDS011;3807;49.030;8.714;2023-11-21T03:03:50;1.07;;;0.90;;
7531;SDS011;3807;49.030;8.714;2023-11-21T03:06:21;0.90;;;0.90;;
7531;SDS011;3807;49.030;8.714;2023-11-21T03:08:47;2.20;;;1.00;;
7531;SDS011;3807;49.030;8.714;2023-11-21T03:11:13;1.77;;;0.90;;
7531;SDS011;3807;49.030;8.714;2023-11-21T03:13:39;2.30;;;1.20;;
7531;SDS011;3807;49.030;8.714;2023-11-21T03:16:06;5.23;;;1.10;;
7531;SDS011;3807;49.030;8.714;2023-11-21T03:18:35;4.50;;;1.20;;
7531;SDS011;3807;49.030;8.714;2023-11-21T03:21:07;2.97;;;1.03;;
7531;SDS011;3807;49.030;8.714;2023-11-21T03:23:36;2.73;;;1.00;;
7531;SDS011;3807;49.030;8.714;2023-11-21T03:26:02;2.87;;;1.30;;
7531;SDS011;3807;49.030;8.714;2023-11-21T03:28:28;1.87;;;1.03;;
7531;SDS011;3807;49.030;8.714;2023-11-21T03:30:53;1.80;;;1.20;;
7531;SDS011;3807;49.030;8.714;2023-11-21T03:33:19;1.63;;;1.10;;
7531;SDS011;3807;49.030;8.714;2023-11-21T03:35:44;3.17;;;1.37;;
7531;SDS011;3807;49.030;8.714;2023-11-21T03:38:10;2.50;;;1.10;;
7531;SDS011;3807;49.030;8.714;2023-11-21T03:40:36;3.53;;;1.20;;
7531;SDS011;3807;49.030;8.714;2023-11-21T03:43:01;1.97;;;1.40;;
7531;SDS011;3807;49.030;8.714;2023-11-21T03:45:26;6.07;;;1.23;;
7531;SDS011;3807;49.030;8.714;2023-11-21T03:47:52;3.17;;;1.53;;
7531;SDS011;3807;49.030;8.714;2023-11-21T03:50:17;2.07;;;1.30;;
7531;SDS011;3807;49.030;8.714;2023-11-21T03:52:42;1.67;;;1.10;;
7531;SDS011;3807;49.030;8.714;2023-11-21T03:55:08;2.90;;;1.37;;
7531;SDS011;3807;49.030;8.714;2023-11-21T03:57:33;4.47;;;1.23;;
7531;SDS011;3807;49.030;8.714;2023-11-21T03:59:59;8.90;;;1.80;;
7531;SDS011;3807;49.030;8.714;2023-11-21T04:02:24;5.37;;;2.17;;
7531;SDS011;3807;49.030;8.714;2023-11-21T04:04:51;3.93;;;1.30;;
7531;SDS011;3807;49.030;8.714;2023-11-21T04:07:16;6.27;;;2.13;;
7531;SDS011;3807;49.030;8.714;2023-11-21T04:09:42;6.70;;;1.53;;
7531;SDS011;3807;49.030;8.714;2023-11-21T04:12:08;13.17;;;3.13;;
7531;SDS011;3807;49.030;8.714;2023-11-21T04:14:34;12.87;;;3.73;;
7531;SDS011;3807;49.030;8.714;2023-11-21T04:17:00;7.27;;;2.20;;
7531;SDS011;3807;49.030;8.714;2023-11-21T04:19:25;5.30;;;2.07;;
7531;SDS011;3807;49.030;8.714;2023-11-21T04:21:51;12.67;;;4.00;;
7531;SDS011;3807;49.030;8.714;2023-11-21T04:24:16;14.17;;;4.07;;
7531;SDS011;3807;49.030;8.714;2023-11-21T04:26:42;19.53;;;5.23;;
7531;SDS011;3807;49.030;8.714;2023-11-21T04:29:08;11.47;;;4.80;;
7531;SDS011;3807;49.030;8.714;2023-11-21T04:31:33;2.13;;;1.50;;
7531;SDS011;3807;49.030;8.714;2023-11-21T04:33:59;6.70;;;2.40;;
7531;SDS011;3807;49.030;8.714;2023-11-21T04:36:24;5.53;;;2.57;;
7531;SDS011;3807;49.030;8.714;2023-11-21T04:38:49;4.60;;;1.70;;
7531;SDS011;3807;49.030;8.714;2023-11-21T04:41:15;3.00;;;1.60;;
7531;SDS011;3807;49.030;8.714;2023-11-21T04:43:40;2.87;;;1.50;;
7531;SDS011;3807;49.030;8.714;2023-11-21T04:46:07;3.53;;;1.67;;
7531;SDS011;3807;49.030;8.714;2023-11-21T04:48:32;3.73;;;1.70;;
7531;SDS011;3807;49.030;8.714;2023-11-21T04:50:58;4.27;;;1.73;;
7531;SDS011;3807;49.030;8.714;2023-11-21T04:53:23;2.57;;;1.37;;
7531;SDS011;3807;49.030;8.714;2023-11-21T04:55:49;3.30;;;1.40;;
7531;SDS011;3807;49.030;8.714;2023-11-21T04:58:14;2.43;;;1.30;;
7531;SDS011;3807;49.030;8.714;2023-11-21T05:00:39;3.20;;;1.20;;
7531;SDS011;3807;49.030;8.714;2023-11-21T05:03:06;2.40;;;1.40;;
7531;SDS011;3807;49.030;8.714;2023-11-21T05:05:32;2.50;;;1.43;;
7531;SDS011;3807;49.030;8.714;2023-11-21T05:07:58;3.13;;;1.60;;
7531;SDS011;3807;49.030;8.714;2023-11-21T05:10:24;4.07;;;1.53;;
7531;SDS011;3807;49.030;8.714;2023-11-21T05:12:50;2.50;;;1.40;;
7531;SDS011;3807;49.030;8.714;2023-11-21T05:15:16;2.23;;;1.27;;
7531;SDS011;3807;49.030;8.714;2023-11-21T05:17:45;2.53;;;1.20;;
7531;SDS011;3807;49.030;8.714;2023-11-21T05:20:18;6.90;;;1.40;;
7531;SDS011;3807;49.030;8.714;2023-11-21T05:22:48;5.23;;;1.63;;
7531;SDS011;3807;49.030;8.714;2023-11-21T05:25:14;2.07;;;1.60;;
7531;SDS011;3807;49.030;8.714;2023-11-21T05:27:40;3.33;;;1.63;;
7531;SDS011;3807;49.030;8.714;2023-11-21T05:30:05;4.80;;;2.67;;
7531;SDS011;3807;49.030;8.714;2023-11-21T05:32:32;4.07;;;1.90;;
7531;SDS011;3807;49.030;8.714;2023-11-21T05:34:58;3.57;;;1.70;;
7531;SDS011;3807;49.030;8.714;2023-11-21T05:37:24;5.93;;;1.70;;
7531;SDS011;3807;49.030;8.714;2023-11-21T05:39:51;2.87;;;1.73;;
7531;SDS011;3807;49.030;8.714;2023-11-21T05:42:17;2.93;;;1.90;;
7531;SDS011;3807;49.030;8.714;2023-11-21T05:44:43;3.03;;;1.77;;
7531;SDS011;3807;49.030;8.714;2023-11-21T05:47:08;3.23;;;1.87;;
7531;SDS011;3807;49.030;8.714;2023-11-21T05:49:34;3.20;;;1.93;;
7531;SDS011;3807;49.030;8.714;2023-11-21T05:52:00;4.23;;;1.70;;
7531;SDS011;3807;49.030;8.714;2023-11-21T05:54:25;5.83;;;1.60;;
7531;SDS011;3807;49.030;8.714;2023-11-21T05:56:51;2.37;;;1.80;;
7531;SDS011;3807;49.030;8.714;2023-11-21T05:59:17;5.73;;;1.80;;
7531;SDS011;3807;49.030;8.714;2023-11-21T06:01:42;2.27;;;1.57;;
7531;SDS011;3807;49.030;8.714;2023-11-21T06:04:07;2.83;;;1.60;;
7531;SDS011;3807;49.030;8.714;2023-11-21T06:06:34;4.90;;;1.83;;
7531;SDS011;3807;49.030;8.714;2023-11-21T06:09:00;6.90;;;1.80;;
7531;SDS011;3807;49.030;8.714;2023-11-21T06:11:25;3.20;;;1.80;;
7531;SDS011;3807;49.030;8.714;2023-11-21T06:13:50;3.40;;;1.70;;
7531;SDS011;3807;49.030;8.714;2023-11-21T06:16:17;2.70;;;1.90;;
7531;SDS011;3807;49.030;8.714;2023-11-21T06:18:44;2.50;;;1.60;;
7531;SDS011;3807;49.030;8.714;2023-11-21T06:21:10;5.33;;;2.00;;
7531;SDS011;3807;49.030;8.714;2023-11-21T06:23:36;3.00;;;1.60;;
7531;SDS011;3807;49.030;8.714;2023-11-21T06:26:01;6.07;;;2.17;;
7531;SDS011;3807;49.030;8.714;2023-11-21T06:28:27;3.53;;;1.73;;
7531;SDS011;3807;49.030;8.714;2023-11-21T06:30:52;5.80;;;2.00;;
7531;SDS011;3807;49.030;8.714;2023-11-21T06:33:18;3.07;;;1.90;;
7531;SDS011;3807;49.030;8.714;2023-11-21T06:35:44;5.73;;;1.87;;
7531;SDS011;3807;49.030;8.714;2023-11-21T06:38:10;2.27;;;1.80;;
7531;SDS011;3807;49.030;8.714;2023-11-21T06:40:35;4.67;;;1.60;;
7531;SDS011;3807;49.030;8.714;2023-11-21T06:43:01;5.63;;;2.10;;
7531;SDS011;3807;49.030;8.714;2023-11-21T06:45:26;3.57;;;1.60;;
7531;SDS011;3807;49.030;8.714;2023-11-21T06:47:52;2.87;;;1.83;;
7531;SDS011;3807;49.030;8.714;2023-11-21T06:50:17;1.60;;;1.40;;
7531;SDS011;3807;49.030;8.714;2023-11-21T06:52:43;6.30;;;1.80;;
7531;SDS011;3807;49.030;8.714;2023-11-21T06:55:08;2.73;;;1.57;;
7531;SDS011;3807;49.030;8.714;2023-11-21T06:57:34;2.10;;;1.67;;
7531;SDS011;3807;49.030;8.714;2023-11-21T07:00:00;2.33;;;1.70;;
7531;SDS011;3807;49.030;8.714;2023-11-21T07:02:26;3.20;;;1.83;;
7531;SDS011;3807;49.030;8.714;2023-11-21T07:04:51;2.10;;;1.80;;
7531;SDS011;3807;49.030;8.714;2023-11-21T07:07:17;1.57;;;1.47;;
7531;SDS011;3807;49.030;8.714;2023-11-21T07:09:44;3.20;;;1.60;;
7531;SDS011;3807;49.030;8.714;2023-11-21T07:12:09;3.03;;;1.50;;
7531;SDS011;3807;49.030;8.714;2023-11-21T07:14:36;2.60;;;1.40;;
7531;SDS011;3807;49.030;8.714;2023-11-21T07:17:02;1.57;;;1.47;;
7531;SDS011;3807;49.030;8.714;2023-11-21T07:19:27;2.03;;;1.40;;
7531;SDS011;3807;49.030;8.714;2023-11-21T07:21:53;2.27;;;1.50;;
7531;SDS011;3807;49.030;8.714;2023-11-21T07:24:18;2.97;;;1.77;;
7531;SDS011;3807;49.030;8.714;2023-11-21T07:26:44;4.20;;;1.67;;
7531;SDS011;3807;49.030;8.714;2023-11-21T07:29:09;3.97;;;1.37;;
7531;SDS011;3807;49.030;8.714;2023-11-21T07:31:36;1.63;;;1.23;;
7531;SDS011;3807;49.030;8.714;2023-11-21T07:34:03;4.50;;;1.80;;
7531;SDS011;3807;49.030;8.714;2023-11-21T07:36:28;2.07;;;1.50;;
7531;SDS011;3807;49.030;8.714;2023-11-21T07:38:53;1.80;;;1.50;;
7531;SDS011;3807;49.030;8.714;2023-11-21T07:41:19;3.27;;;1.70;;
7531;SDS011;3807;49.030;8.714;2023-11-21T07:43:45;2.97;;;1.70;;
7531;SDS011;3807;49.030;8.714;2023-11-21T07:46:11;5.50;;;1.23;;
7531;SDS011;3807;49.030;8.714;2023-11-21T07:48:40;1.40;;;1.30;;
7531;SDS011;3807;49.030;8.714;2023-11-21T07:51:07;5.07;;;1.57;;
7531;SDS011;3807;49.030;8.714;2023-11-21T07:53:33;1.87;;;1.23;;
7531;SDS011;3807;49.030;8.714;2023-11-21T07:56:02;1.97;;;1.50;;
7531;SDS011;3807;49.030;8.714;2023-11-21T07:58:28;2.30;;;1.50;;
7531;SDS011;3807;49.030;8.714;2023-11-21T08:00:54;2.00;;;1.80;;
7531;SDS011;3807;49.030;8.714;2023-11-21T08:03:19;4.13;;;2.10;;
7531;SDS011;3807;49.030;8.714;2023-11-21T08:05:45;3.63;;;2.07;;
7531;SDS011;3807;49.030;8.714;2023-11-21T08:08:10;2.50;;;1.90;;
7531;SDS011;3807;49.030;8.714;2023-11-21T08:10:36;1.73;;;1.63;;
7531;SDS011;3807;49.030;8.714;2023-11-21T08:13:02;4.33;;;1.80;;
7531;SDS011;3807;49.030;8.714;2023-11-21T08:15:31;2.00;;;1.77;;
7531;SDS011;3807;49.030;8.714;2023-11-21T08:17:57;2.73;;;1.93;;
7531;SDS011;3807;49.030;8.714;2023-11-21T08:20:23;2.97;;;1.63;;
7531;SDS011;3807;49.030;8.714;2023-11-21T08:22:50;2.77;;;2.17;;
7531;SDS011;3807;49.030;8.714;2023-11-21T08:25:16;5.30;;;2.13;;
7531;SDS011;3807;49.030;8.714;2023-11-21T08:27:44;3.23;;;2.40;;
7531;SDS011;3807;49.030;8.714;2023-11-21T08:30:10;3.17;;;1.67;;
7531;SDS011;3807;49.030;8.714;2023-11-21T08:32:37;3.33;;;2.60;;
7531;SDS011;3807;49.030;8.714;2023-11-21T08:35:02;2.50;;;2.10;;
7531;SDS011;3807;49.030;8.714;2023-11-21T08:37:27;2.83;;;2.20;;
7531;SDS011;3807;49.030;8.714;2023-11-21T08:39:55;2.43;;;1.80;;
7531;SDS011;3807;49.030;8.714;2023-11-21T08:42:23;2.67;;;2.33;;
7531;SDS011;3807;49.030;8.714;2023-11-21T08:44:48;2.50;;;2.10;;
7531;SDS011;3807;49.030;8.714;2023-11-21T08:47:13;4.07;;;2.23;;
7531;SDS011;3807;49.030;8.714;2023-11-21T08:49:39;3.00;;;2.17;;
7531;SDS011;3807;49.030;8.714;2023-11-21T08:52:04;2.00;;;1.80;;
7531;SDS011;3807;49.030;8.714;2023-11-21T08:54:31;2.90;;;1.97;;
7531;SDS011;3807;49.030;8.714;2023-11-21T08:56:57;5.57;;;2.47;;
7531;SDS011;3807;49.030;8.714;2023-11-21T08:59:25;5.07;;;2.40;;
7531;SDS011;3807;49.030;8.714;2023-11-21T09:01:52;4.97;;;2.07;;
7531;SDS011;3807;49.030;8.714;2023-11-21T09:04:17;2.60;;;2.20;;
7531;SDS011;3807;49.030;8.714;2023-11-21T09:06:42;3.53;;;2.70;;
7531;SDS011;3807;49.030;8.714;2023-11-21T09:09:08;2.30;;;1.87;;
7531;SDS011;3807;49.030;8.714;2023-11-21T09:11:35;2.90;;;2.20;;
7531;SDS011;3807;49.030;8.714;2023-11-21T09:14:01;3.73;;;2.77;;
7531;SDS011;3807;49.030;8.714;2023-11-21T09:16:26;3.40;;;2.67;;
7531;SDS011;3807;49.030;8.714;2023-11-21T09:18:51;4.17;;;3.37;;
7531;SDS011;3807;49.030;8.714;2023-11-21T09:21:17;4.13;;;3.30;;
7531;SDS011;3807;49.030;8.714;2023-11-21T09:23:44;4.10;;;2.60;;
7531;SDS011;3807;49.030;8.714;2023-11-21T09:26:10;6.97;;;3.83;;
7531;SDS011;3807;49.030;8.714;2023-11-21T09:28:35;4.10;;;3.37;;
7531;SDS011;3807;49.030;8.714;2023-11-21T09:31:02;6.57;;;4.10;;
7531;SDS011;3807;49.030;8.714;2023-11-21T09:33:33;4.30;;;3.83;;
7531;SDS011;3807;49.030;8.714;2023-11-21T09:35:59;5.63;;;4.23;;
7531;SDS011;3807;49.030;8.714;2023-11-21T09:38:24;7.33;;;5.00;;
7531;SDS011;3807;49.030;8.714;2023-11-21T09:40:49;7.00;;;5.53;;
7531;SDS011;3807;49.030;8.714;2023-11-21T09:43:16;9.60;;;5.70;;
7531;SDS011;3807;49.030;8.714;2023-11-21T09:45:52;8.23;;;5.13;;
7531;SDS011;3807;49.030;8.714;2023-11-21T09:48:21;6.20;;;5.07;;
7531;SDS011;3807;49.030;8.714;2023-11-21T09:50:49;7.37;;;4.30;;
7531;SDS011;3807;49.030;8.714;2023-11-21T09:53:22;7.57;;;4.83;;
7531;SDS011;3807;49.030;8.714;2023-11-21T09:55:50;9.23;;;6.70;;
7531;SDS011;3807;49.030;8.714;2023-11-21T09:58:17;9.43;;;6.47;;
7531;SDS011;3807;49.030;8.714;2023-11-21T10:00:45;11.07;;;6.97;;
7531;SDS011;3807;49.030;8.714;2023-11-21T10:03:17;15.63;;;8.03;;
7531;SDS011;3807;49.030;8.714;2023-11-21T10:05:43;11.50;;;7.63;;
7531;SDS011;3807;49.030;8.714;2023-11-21T10:08:13;12.80;;;7.27;;
7531;SDS011;3807;49.030;8.714;2023-11-21T10:10:43;17.00;;;9.90;;
7531;SDS011;3807;49.030;8.714;2023-11-21T10:13:11;14.43;;;7.80;;
7531;SDS011;3807;49.030;8.714;2023-11-21T10:15:37;13.20;;;7.90;;
7531;SDS011;3807;49.030;8.714;2023-11-21T10:18:03;13.97;;;9.67;;
7531;SDS011;3807;49.030;8.714;2023-11-21T10:20:31;14.50;;;8.77;;
7531;SDS011;3807;49.030;8.714;2023-11-21T10:22:58;10.30;;;7.30;;
7531;SDS011;3807;49.030;8.714;2023-11-21T10:25:24;12.37;;;8.90;;
7531;SDS011;3807;49.030;8.714;2023-11-21T10:27:50;12.57;;;8.73;;
7531;SDS011;3807;49.030;8.714;2023-11-21T10:30:35;13.33;;;8.60;;
7531;SDS011;3807;49.030;8.714;2023-11-21T10:33:02;9.87;;;6.80;;
7531;SDS011;3807;49.030;8.714;2023-11-21T10:38:07;13.37;;;8.83;;
7531;SDS011;3807;49.030;8.714;2023-11-21T10:40:37;13.50;;;7.50;;
7531;SDS011;3807;49.030;8.714;2023-11-21T10:43:10;12.83;;;8.57;;
7531;SDS011;3807;49.030;8.714;2023-11-21T10:45:39;17.03;;;9.70;;
7531;SDS011;3807;49.030;8.714;2023-11-21T10:48:05;16.37;;;8.03;;
7531;SDS011;3807;49.030;8.714;2023-11-21T10:50:40;13.17;;;8.37;;
7531;SDS011;3807;49.030;8.714;2023-11-21T10:53:06;17.53;;;9.90;;
7531;SDS011;3807;49.030;8.714;2023-11-21T10:55:33;15.10;;;8.40;;
7531;SDS011;3807;49.030;8.714;2023-11-21T10:58:00;14.33;;;9.33;;
7531;SDS011;3807;49.030;8.714;2023-11-21T11:00:28;11.43;;;7.97;;
7531;SDS011;3807;49.030;8.714;2023-11-21T11:02:54;13.47;;;8.77;;
7531;SDS011;3807;49.030;8.714;2023-11-21T11:05:21;12.93;;;8.20;;
7531;SDS011;3807;49.030;8.714;2023-11-21T11:07:51;11.83;;;8.03;;
7531;SDS011;3807;49.030;8.714;2023-11-21T11:10:25;13.97;;;8.93;;
7531;SDS011;3807;49.030;8.714;2023-11-21T11:12:52;15.13;;;9.77;;
7531;SDS011;3807;49.030;8.714;2023-11-21T11:15:19;16.47;;;9.40;;
7531;SDS011;3807;49.030;8.714;2023-11-21T11:17:45;18.13;;;7.90;;
7531;SDS011;3807;49.030;8.714;2023-11-21T11:20:12;11.77;;;8.70;;
7531;SDS011;3807;49.030;8.714;2023-11-21T11:22:50;12.33;;;8.67;;
7531;SDS011;3807;49.030;8.714;2023-11-21T11:25:24;15.03;;;9.50;;
7531;SDS011;3807;49.030;8.714;2023-11-21T11:38:20;12.67;;;7.60;;
7531;SDS011;3807;49.030;8.714;2023-11-21T11:40:48;10.33;;;7.90;;
7531;SDS011;3807;49.030;8.714;2023-11-21T11:43:24;10.77;;;7.30;;
7531;SDS011;3807;49.030;8.714;2023-11-21T11:45:51;10.93;;;7.13;;
7531;SDS011;3807;49.030;8.714;2023-11-21T11:48:18;8.07;;;6.37;;
7531;SDS011;3807;49.030;8.714;2023-11-21T11:53:42;7.97;;;5.87;;
7531;SDS011;3807;49.030;8.714;2023-11-21T11:58:56;9.07;;;6.37;;
7531;SDS011;3807;49.030;8.714;2023-11-21T12:01:25;9.23;;;6.23;;
7531;SDS011;3807;49.030;8.714;2023-11-21T12:06:56;9.37;;;6.47;;
7531;SDS011;3807;49.030;8.714;2023-11-21T12:09:25;8.10;;;6.30;;
7531;SDS011;3807;49.030;8.714;2023-11-21T12:11:51;7.70;;;5.43;;
7531;SDS011;3807;49.030;8.714;2023-11-21T12:14:17;9.07;;;5.93;;
7531;SDS011;3807;49.030;8.714;2023-11-21T12:16:42;5.13;;;3.67;;
7531;SDS011;3807;49.030;8.714;2023-11-21T12:19:08;5.63;;;3.60;;
7531;SDS011;3807;49.030;8.714;2023-11-21T12:21:37;3.40;;;2.67;;
7531;SDS011;3807;49.030;8.714;2023-11-21T12:24:03;5.80;;;4.33;;
7531;SDS011;3807;49.030;8.714;2023-11-21T12:26:29;5.83;;;3.73;;
7531;SDS011;3807;49.030;8.714;2023-11-21T12:28:54;6.93;;;3.77;;
7531;SDS011;3807;49.030;8.714;2023-11-21T12:31:23;5.97;;;3.70;;
7531;SDS011;3807;49.030;8.714;2023-11-21T12:33:48;5.07;;;3.70;;
7531;SDS011;3807;49.030;8.714;2023-11-21T12:36:14;9.53;;;4.80;;
7531;SDS011;3807;49.030;8.714;2023-11-21T12:38:41;5.80;;;3.63;;
7531;SDS011;3807;49.030;8.714;2023-11-21T12:41:07;5.43;;;3.33;;
7531;SDS011;3807;49.030;8.714;2023-11-21T12:43:33;3.57;;;2.87;;
7531;SDS011;3807;49.030;8.714;2023-11-21T12:46:09;3.97;;;3.33;;
7531;SDS011;3807;49.030;8.714;2023-11-21T12:48:39;4.07;;;3.10;;
7531;SDS011;3807;49.030;8.714;2023-11-21T12:51:09;3.10;;;2.60;;
7531;SDS011;3807;49.030;8.714;2023-11-21T12:53:36;3.17;;;2.60;;
7531;SDS011;3807;49.030;8.714;2023-11-21T12:56:06;3.63;;;2.63;;
7531;SDS011;3807;49.030;8.714;2023-11-21T12:58:34;2.00;;;1.60;;
7531;SDS011;3807;49.030;8.714;2023-11-21T13:01:00;2.23;;;1.90;;
7531;SDS011;3807;49.030;8.714;2023-11-21T13:03:29;4.83;;;2.23;;
7531;SDS011;3807;49.030;8.714;2023-11-21T13:05:55;1.37;;;1.27;;
7531;SDS011;3807;49.030;8.714;2023-11-21T13:08:23;9.00;;;1.70;;
7531;SDS011;3807;49.030;8.714;2023-11-21T13:10:53;1.80;;;1.70;;
7531;SDS011;3807;49.030;8.714;2023-11-21T13:13:21;2.40;;;1.67;;
7531;SDS011;3807;49.030;8.714;2023-11-21T13:15:51;1.97;;;1.73;;
7531;SDS011;3807;49.030;8.714;2023-11-21T13:18:25;1.70;;;1.60;;
7531;SDS011;3807;49.030;8.714;2023-11-21T13:20:52;1.57;;;1.47;;
7531;SDS011;3807;49.030;8.714;2023-11-21T13:23:23;1.90;;;1.63;;
7531;SDS011;3807;49.030;8.714;2023-11-21T13:25:49;1.77;;;1.60;;
7531;SDS011;3807;49.030;8.714;2023-11-21T13:28:15;4.83;;;2.40;;
7531;SDS011;3807;49.030;8.714;2023-11-21T13:30:40;2.47;;;2.20;;
7531;SDS011;3807;49.030;8.714;2023-11-21T13:33:06;3.20;;;2.03;;
7531;SDS011;3807;49.030;8.714;2023-11-21T13:35:36;2.07;;;1.83;;
7531;SDS011;3807;49.030;8.714;2023-11-21T13:40:36;2.90;;;2.10;;
7531;SDS011;3807;49.030;8.714;2023-11-21T13:43:11;2.50;;;2.10;;
7531;SDS011;3807;49.030;8.714;2023-11-21T13:45:38;4.10;;;2.37;;
7531;SDS011;3807;49.030;8.714;2023-11-21T13:48:05;2.33;;;2.10;;
7531;SDS011;3807;49.030;8.714;2023-11-21T13:50:35;3.27;;;2.57;;
7531;SDS011;3807;49.030;8.714;2023-11-21T13:53:02;3.17;;;2.53;;
7531;SDS011;3807;49.030;8.714;2023-11-21T13:55:34;7.17;;;2.67;;
7531;SDS011;3807;49.030;8.714;2023-11-21T13:58:01;6.43;;;2.90;;
7531;SDS011;3807;49.030;8.714;2023-11-21T14:00:28;3.67;;;3.03;;
7531;SDS011;3807;49.030;8.714;2023-11-21T14:03:14;4.90;;;4.33;;
7531;SDS011;3807;49.030;8.714;2023-11-21T14:05:49;7.10;;;4.60;;
7531;SDS011;3807;49.030;8.714;2023-11-21T14:08:21;4.03;;;3.10;;
7531;SDS011;3807;49.030;8.714;2023-11-21T14:10:48;4.40;;;3.50;;
7531;SDS011;3807;49.030;8.714;2023-11-21T14:13:22;3.77;;;3.07;;
7531;SDS011;3807;49.030;8.714;2023-11-21T14:15:49;3.40;;;3.10;;
7531;SDS011;3807;49.030;8.714;2023-11-21T14:18:17;5.13;;;2.70;;
7531;SDS011;3807;49.030;8.714;2023-11-21T14:20:51;5.73;;;3.27;;
7531;SDS011;3807;49.030;8.714;2023-11-21T14:23:16;4.97;;;3.33;;
7531;SDS011;3807;49.030;8.714;2023-11-21T14:25:43;4.00;;;3.13;;
7531;SDS011;3807;49.030;8.714;2023-11-21T14:28:08;3.27;;;2.63;;
7531;SDS011;3807;49.030;8.714;2023-11-21T14:30:36;3.03;;;2.73;;
7531;SDS011;3807;49.030;8.714;2023-11-21T14:33:06;4.50;;;3.60;;
7531;SDS011;3807;49.030;8.714;2023-11-21T14:35:33;5.53;;;3.43;;
7531;SDS011;3807;49.030;8.714;2023-11-21T14:37:59;6.10;;;3.43;;
7531;SDS011;3807;49.030;8.714;2023-11-21T14:40:25;4.03;;;3.47;;
7531;SDS011;3807;49.030;8.714;2023-11-21T14:42:54;4.10;;;3.60;;
7531;SDS011;3807;49.030;8.714;2023-11-21T14:45:22;7.07;;;3.10;;
7531;SDS011;3807;49.030;8.714;2023-11-21T14:47:51;7.37;;;3.30;;
7531;SDS011;3807;49.030;8.714;2023-11-21T14:50:31;4.93;;;3.60;;
7531;SDS011;3807;49.030;8.714;2023-11-21T14:53:06;5.23;;;3.17;;
7531;SDS011;3807;49.030;8.714;2023-11-21T14:55:32;5.23;;;3.67;;
7531;SDS011;3807;49.030;8.714;2023-11-21T14:58:08;4.43;;;2.93;;
7531;SDS011;3807;49.030;8.714;2023-11-21T15:00:37;4.10;;;3.57;;
7531;SDS011;3807;49.030;8.714;2023-11-21T15:03:09;5.63;;;3.60;;
7531;SDS011;3807;49.030;8.714;2023-11-21T15:05:36;4.07;;;3.27;;
7531;SDS011;3807;49.030;8.714;2023-11-21T15:08:03;4.10;;;3.50;;
7531;SDS011;3807;49.030;8.714;2023-11-21T15:10:55;5.20;;;4.13;;
7531;SDS011;3807;49.030;8.714;2023-11-21T15:13:21;5.30;;;3.97;;
7531;SDS011;3807;49.030;8.714;2023-11-21T15:15:48;5.83;;;4.87;;
7531;SDS011;3807;49.030;8.714;2023-11-21T15:18:13;5.43;;;4.20;;
7531;SDS011;3807;49.030;8.714;2023-11-21T15:20:39;5.90;;;4.87;;
7531;SDS011;3807;49.030;8.714;2023-11-21T15:23:05;6.00;;;5.03;;
7531;SDS011;3807;49.030;8.714;2023-11-21T15:25:31;6.77;;;4.50;;
7531;SDS011;3807;49.030;8.714;2023-11-21T15:27:57;9.57;;;6.30;;
7531;SDS011;3807;49.030;8.714;2023-11-21T15:30:22;9.63;;;6.03;;
7531;SDS011;3807;49.030;8.714;2023-11-21T15:32:50;6.43;;;5.57;;
7531;SDS011;3807;49.030;8.714;2023-11-21T15:35:16;10.67;;;5.67;;
7531;SDS011;3807;49.030;8.714;2023-11-21T15:37:41;6.13;;;4.63;;